This is the latest recevied weather packets stored in our database for station/object KM4CNW. If no packets are shown the sender has not sent any weather packets the latest 1 day(s).
| Time | Temp. | Humidity | Pressure | Rain* | Wind** | Luminosity | Snow |
|---|---|---|---|---|---|---|---|
| 1778029466 | 20° C | 52% | 1008 hPa | 0 mm | 0 m/s | 0 W/m² | - |
| 1778029161 | 20° C | 50% | 1008.1 hPa | 0 mm | 0 m/s | 0 W/m² | - |
| 1778028860 | 20.56° C | 48% | 1008.1 hPa | 0 mm | 0 m/s | 0 W/m² | - |
| 1778028554 | 21.11° C | 47% | 1007.9 hPa | 0 mm | 0 m/s | 0 W/m² | - |
| 1778028253 | 21.11° C | 45% | 1007.8 hPa | 0 mm | 0.45 m/s, 277° | 0 W/m² | - |
| 1778027948 | 21.67° C | 44% | 1007.9 hPa | 0 mm | 0.45 m/s, 277° | 0 W/m² | - |
| 1778027645 | 21.67° C | 44% | 1008.1 hPa | 0 mm | 0 m/s | 0 W/m² | - |
| 1778027342 | 22.22° C | 43% | 1007.6 hPa | 0 mm | 0.45 m/s, 277° | 0 W/m² | - |
| 1778027038 | 22.22° C | 42% | 1007.8 hPa | 0 mm | 0.45 m/s, 277° | 0 W/m² | - |
| 1778026733 | 22.78° C | 42% | 1007.8 hPa | 0 mm | 0.45 m/s, 277° | 1 W/m² | - |
| 1778026430 | 22.78° C | 41% | 1007.7 hPa | 0 mm | 0.45 m/s, 277° | 2 W/m² | - |
| 1778026134 | 22.78° C | 40% | 1007.6 hPa | 0 mm | 0.45 m/s, 278° | 3 W/m² | - |
| 1778025825 | 22.78° C | 40% | 1007.8 hPa | 0 mm | 0.89 m/s, 273° | 5 W/m² | - |
| 1778025522 | 22.78° C | 40% | 1007.8 hPa | 0 mm | 0.89 m/s, 277° | 7 W/m² | - |
| 1778025219 | 23.33° C | 40% | 1007.8 hPa | 0 mm | 0.45 m/s, 225° | 8 W/m² | - |
| 1778024916 | 23.33° C | 41% | 1007.6 hPa | 0 mm | 0.89 m/s, 282° | 10 W/m² | - |
| 1778024614 | 23.33° C | 40% | 1007.6 hPa | 0 mm | 0.89 m/s, 270° | 14 W/m² | - |
| 1778024316 | 23.33° C | 39% | 1007.6 hPa | 0 mm | 0.45 m/s, 269° | 17 W/m² | - |
| 1778024009 | 23.89° C | 39% | 1007.7 hPa | 0 mm | 0.45 m/s, 270° | 26 W/m² | - |
| 1778023706 | 23.89° C | 38% | 1007.5 hPa | 0 mm | 0.89 m/s, 263° | 31 W/m² | - |
| 1778023403 | 23.89° C | 38% | 1007.6 hPa | 0 mm | 0.89 m/s, 274° | 33 W/m² | - |
| 1778023100 | 23.89° C | 37% | 1007.4 hPa | 0 mm | 0.89 m/s, 277° | 42 W/m² | - |
| 1778022798 | 23.89° C | 37% | 1007.3 hPa | 0 mm | 1.79 m/s, 323° | 43 W/m² | - |
| 1778022496 | 24.44° C | 37% | 1007.2 hPa | 0 mm | 0.45 m/s, 206° | 33 W/m² | - |
| 1778022193 | 24.44° C | 37% | 1007.5 hPa | 0 mm | 1.79 m/s, 340° | 31 W/m² | - |
* Rain latest hour (hover to see other rain measurements)
** Current wind speed in m/s (hover to see current wind gust speed)